Wells, New York
Current Conditions -  °F | °C
As of 9:15 AM on Monday 26 Jan 2015 (Local Time) from KNY0 Reporting Station
Overcast Overcast  
Wind Chill: -21°   Ceiling: 7000
Heat Index: -15°   Visibility: 10mi
Dew Point: -20°   Wind: 7mph
Humidity: 64%   Direction: 70°ENE
Pressure: 30.05"   Gusts: NA
Location:  43.39°N, 74.28°W
Report Text: KNY0 261415Z AUTO 07006KT 10SM OVC070 M15/M20 A3005 RMK AO2 T11481202
Loading
Personal Weather Stations






























Interactive Weather Map New forecast layout! Learn more

10-Day Weather Forecast

Advertisements
Track Severe Weather on mobile